首页
METAR-TAF:

METAR-TAF

机场 :

北京首都国际机场

北京, 中华人民共和国

纬度: 39-56N, 经度: 116-17E, 海拔: 55米

当前天气观测

该预报发布于24分钟前的00:00 UTC
风速4节,风向东转东北
温度 10°C
湿度 66%
气压 1009 hPa
能見度: 4000
轻雾

METAR: ZBAA 190000Z 06002MPS 4000 BR NSC 10/04 Q1009 NOSIG

时间: 08:24 (00:24 UTC)

预报

该预报发布于2小时和54分钟前的21:30 UTC
预报有效从19日的 00点(UTC)到 19日的 24点(UTC)
风速8节,风向东转东南
能見度: 4000
轻雾
成为
从 19日的 18点(UTC)到 19日的 19点(UTC)
能見度: 2400
小雨

TAF: ZBAA 182130Z 1900/1924 12004MPS 4000 BR NSC TX25/1907Z TN09/1922Z BECMG 1918/1919 2400 -RA

超过4000个机场的气象观测和天气预报(METAR&TAF报告)。

可查询的气象台以黄色和红色小点在地图上表示。

将鼠标移到小点上方,可查看气象台名称。

然后点击查看天气观测和预报。

如需切换地图:点击带黑十字的绿色按钮放大地图;点击带横线的绿色按钮缩小地图;或者点击绿色箭头查看邻近地区的地图。


METAR-TAF: